arxmliv
arxmliv build tool
 
KWARC group
LaTeXML
About
   
 

Detailed info

Back to Homepage

List of missing_macros

No. Date Filename num_warningnum_errornum_xmargok_xmargnum_xmathok_xmathMissing macros
127801 2013-03-06 22:39:48 /0505/hep-ph.0505090 1980000[\Text, \ArrowLine, \SetScale, \@dblfloat, \end@dblfloat, \DashLine].
127802 2013-03-06 22:39:26 /0505/hep-ph.0505104 210000[\address].
127803 2013-03-06 22:39:00 /0505/hep-ph.0505077 25270000[\GBoxc, \Text, \ArrowLine, \SetWidth, \Photon, \PhotonArc, \DashArrowLine].
127804 2013-03-06 22:38:50 /0505/hep-ph.0505069 660000[\Vertex, \Line, \SetWidth, \Photon, \PhotonArc, \SetColor].
127805 2013-03-06 22:38:46 /0505/hep-ph.0505086 1710000[\setcaptionwidth].
127806 2013-03-06 22:36:42 /0505/hep-ph.0505067 61120000[\fmffreeze, {fmffile}, \fmf, \fmfv, \fmfdot, \fmfframe, {fmfgraph*}, \fmfleft, \psfrag, \fmfright].
127807 2013-03-06 22:36:40 /0505/hep-ph.0505042 11180000[\FAVert, \FADiagram, {feynartspicture}, \FALabel, \FAProp]; 1 missing file[feynarts2.sty].
127808 2013-03-06 22:36:40 /0505/hep-ph.0505056 48230000[{fmffile}, \abs, \fmfblob, \fmf, \fmflabel, \fmfdot, \preface, {fmfgraph*}, \fmfleft, \fmfright, \acknowledgements, \etal].
127809 2013-03-06 22:36:25 /0505/hep-ph.0505065 250000[\Redakcjatrue, \headauthor, \PACS, \headtitle, \Preprintfalse].
127810 2013-03-06 22:36:12 /0505/hep-ph.0505034 6320000[\psfrag].
127811 2013-03-06 22:34:15 /0505/hep-ph.0505041 11630000[\Vertex, \Line, \CArc].
127812 2013-03-06 22:34:15 /0505/hep-ph.0505046 6010000[\toprule].
127813 2013-03-06 22:33:47 /0505/hep-ex.0505100 231320000[\smaller, {sidewaystable}].
127814 2013-03-06 22:33:37 /0505/hep-ph.0505044 720000[\layoutstyle, \classification].
127815 2013-03-06 22:33:23 /0505/hep-ph.0505018 10660000[\includegraphics, \abstracts, \tbl, \epsffile, \epsfysize]; 1 missing file[ws.sty].
127816 2013-03-06 22:32:40 /0505/hep-ph.0505036 1850000[\Text, \Line, \Photon, \DashLine, \Gluon].
127817 2013-03-06 22:32:28 /0505/hep-ph.0505035 070000[\extrasenglish, {turn}, \dateenglish, \captionsenglish].
127818 2013-03-06 22:32:04 /0505/hep-ph.0505020 140000[\Vertex, \Line, \CArc, \Gluon].
127819 2013-03-06 22:32:03 /0505/hep-ph.0505024 1310000[\address].
127820 2013-03-06 22:31:12 /0505/hep-ph.0505011 010000[\ead].
127821 2013-03-06 22:29:51 /0505/hep-ph.0505006 010000[\ead].
127822 2013-03-06 22:29:48 /0505/hep-lat.0505013 1100000[\Line, \rText, \SetColor, \LinAxis, \Text, \COval, \CCirc, \CBoxc, \CTri, \DashLine].
127823 2013-03-06 22:29:38 /0505/hep-lat.0505016 1480000[\sodauthor, \rauthor, \address, \sodtitle, \dates, \lat, \PACS, \rtitle].
127824 2013-03-06 22:29:19 /0505/hep-lat.0505004 6010000[\psfrag].
127825 2013-03-06 22:29:18 /0505/hep-lat.0505002 5960000[\Hline, \appendixend, \thintablerule, \Bigrm, \bigrm]; 1 missing file[sf.sty].
127826 2013-03-06 22:28:55 /0505/hep-lat.0505021 040000[\catchline, \psfig, \refcite]; 1 missing file[ws.sty].
127827 2013-03-06 22:28:18 /0505/hep-ex.0505054 3910000[\theappendix].
127828 2013-03-06 22:28:11 /0505/hep-lat.0505011 27240000[\articletitle, {chapthebibliography}, \altaffiltext, \normallatexbib, \altaffilmark].
127829 2013-03-06 22:27:53 /0505/hep-ex.0505099 1410000[\smaller].
127830 2013-03-06 22:27:52 /0505/hep-ex.0505084 1210000[\smaller].
127831 2013-03-06 22:27:26 /0505/hep-ex.0505085 270000[\epsfbox, \abstracts, \tbl, \epsfxsize]; 1 missing file[ws.sty].
127832 2013-03-06 22:27:25 /0505/hep-ex.0505083 108980000[\ccode, \catchline, \psfig, \refcite, \tbl, \pub, \keywords, \colrule].
127833 2013-03-06 22:27:18 /0505/hep-ex.0505092 2110000[\smaller].
127834 2013-03-06 22:27:00 /0505/hep-ex.0505090 820000[\layoutstyle, \classification].
127835 2013-03-06 22:26:57 /0505/hep-ex.0505077 3320000[{sidewaystable}].
127836 2013-03-06 22:26:43 /0505/hep-ex.0505007 14110000[\theappendix].
127837 2013-03-06 22:26:36 /0505/hep-ex.0505078 210000[\apprge].
127838 2013-03-06 22:26:30 /0505/hep-ex.0505072 2510000[{sideways}].
127839 2013-03-06 22:26:12 /0505/hep-ex.0505070 36250000[\smaller, \ccode, \catchline, \psfig, \tbl, {itemlist}, \pub, \keywords, \colrule, \botrule, \toprule]; 1 missing file[ws.sty].
127840 2013-03-06 22:25:29 /0505/hep-ex.0505058 030000[\pb, \GeV, \etal].
127841 2013-03-06 22:24:44 /0505/gr-qc.0505160 14710000[\tfrac].
127842 2013-03-06 22:24:41 /0505/hep-ex.0505040 420000[\address, \abstracts].
127843 2013-03-06 22:24:03 /0505/hep-ex.0505012 1610000[\citet].
127844 2013-03-06 22:23:40 /0505/hep-ex.0505015 030000[\address, \abstracts]; 1 missing file[Bedeschi_Moriond.sty].
127845 2013-03-06 22:23:29 /0505/hep-ex.0505008 42170000[\xspace, \ifzbstpl, \lesssim, \makezeustitle, \ifzbstnp, \ifzbstepj, \prepnum, \ifzdrftbst, \draftversion, \ifzeusbst, \gtrsim, \text]; 1 missing file[zeus_paper.cls].
127846 2013-03-06 22:23:17 /0505/hep-ex.0505004 1210000[\smaller].
127847 2013-03-06 22:22:38 /0505/hep-ex.0505009 7190000[\Pgmp, \epsfbox, \abstracts, \PW, \Pgt, \Pgmm, \epsfxsize]; 1 missing file[ws.sty].
127848 2013-03-06 22:22:28 /0505/gr-qc.0505161 1840000[{SCfigure}, \setcaptionwidth]; 1 missing file[sidecap.sty].
127849 2013-03-06 22:20:49 /0505/gr-qc.0505133 040000[{subequations}, \epubtkAuthorData]; 2 missing files[epubtk.sty, equation.sty].
127850 2013-03-06 22:19:35 /0505/gr-qc.0505105 030000[\extrasenglish, \dateenglish, \captionsenglish].
127851 2013-03-06 22:18:58 /0505/gr-qc.0505111 070000[\comby, \catchline, {history}, \revised, \keywords, \received]; 1 missing file[ws.sty].
127852 2013-03-06 22:18:19 /0505/gr-qc.0505102 120000[{sidewaysfigure}].
127853 2013-03-06 22:17:58 /0505/cs.0505032 39960000[{comment}, \appendices, \useRomanappendicesfalse, {proof}]; 1 missing file[IEEEtran.cls].
127854 2013-03-06 22:17:41 /0505/gr-qc.0505070 730000[\theappendix, \allsectionsfont]; 1 missing file[sectsty.sty].
127855 2013-03-06 22:17:21 /0505/gr-qc.0505063 1140000[\@affiliation].
127856 2013-03-06 22:16:53 /0505/gr-qc.0505054 070000[\datespanish, \extrasenglish, \noextrasspanish, \noextrasenglish, \captionsspanish, \dateenglish, \captionsenglish].
127857 2013-03-06 22:16:50 /0505/gr-qc.0505043 1630000[\pssilent, \psfig]; 1 missing file[psfig].
127858 2013-03-06 22:16:15 /0505/gr-qc.0505041 310000[\normalem].
127859 2013-03-06 22:15:57 /0505/gr-qc.0505023 720000[\psfig]; 1 missing file[psfig].
127860 2013-03-06 22:15:48 /0505/gr-qc.0505032 50770000[\psfrag].
127861 2013-03-06 22:15:44 /0505/gr-qc.0505040 4310000[\text].
127862 2013-03-06 22:15:37 /0505/gr-qc.0505042 210000[\normalem].
127863 2013-03-06 22:14:45 /0505/cs.0505086 3290000[\If, \dontprintsemicolon, \SetArgSty, \Return, \ForEach, \SetFuncSty, {algorithm2e}]; 1 missing file[biograph.sty].
127864 2013-03-06 22:14:18 /0505/cs.0505085 4570000[{keywords}, \accepted, \xymatrix, Align, \email, {Verbatim}, \submitted, \revised, \ar]; 3 missing files[fancyvrb.sty, tlp.cls, xy.sty].
127865 2013-03-06 22:14:05 /0505/gr-qc.0505007 7250000[\psfrag].
127866 2013-03-06 22:13:49 /0505/gr-qc.0505012 230000[\address, \TitreGlobal, \runningtitle]; 1 missing file[edp-conf.cls].
127867 2013-03-06 22:13:40 /0505/cs.0505072 20150000[{keywords}, \PARstart, {biography}, \IEEEpeerreviewmaketitle, \appendices, {proof}]; 1 missing file[IEEEtran.cls].
127868 2013-03-06 22:13:37 /0505/cs.0505075 3510000[\theappendix].
127869 2013-03-06 22:13:36 /0505/cs.0505063 5380000[\proof, \address, \thethm, \email, \rsuper, \lsuper, \lmcsheading, \qed]; 1 missing file[LMCS.cls].
127870 2013-03-06 22:13:36 /0505/cs.0505077 1270000[\Blue, \Green, \Red]; 1 missing file[colordvi.sty].
127871 2013-03-06 22:13:24 /0505/cs.0505033 163120000[{keywords}, \doi, \accepted, \pagerange, \jdate, \revised, \submitted, {proof}, \pubyear]; 1 missing file[tlp.cls].
127872 2013-03-06 22:13:21 /0505/cs.0505064 120000[\affiliation, {Abstract}]; 1 missing file[IROS.cls].
127873 2013-03-06 22:13:12 /0505/cs.0505049 9100000[{keywords}, \IEEEmembership, {proof}]; 1 missing file[IEEEtran.cls].
127874 2013-03-06 22:12:42 /0505/cs.0505026 96470000[\citeauthoryear, {lemma}, {keywords}, {theorem}, \accepted, \shorttitle, \submitted, \revised, \text, {proof}]; 2 missing files[tlp.cls, aopmath.sty].
127875 2013-03-06 22:12:37 /0505/cs.0505022 6450000[\authorblockN, \authorblockA, \psfrag, \appendices, {proof}]; 1 missing file[IEEEtran.cls].
127876 2013-03-06 22:12:32 /0505/cs.0505054 2110000[\QED]; 1 missing file[IEEEtran.cls].
127877 2013-03-06 22:12:31 /0505/cs.0505025 10090000[{theorem}, \accepted, \email, \psfrag, \submitted, \revised, {proof}, \text]; 2 missing files[tlp.cls, aopmath.sty].
127878 2013-03-06 22:12:14 /0505/cs.0505038 26170000[\includegraphics, \trnumber, \publication]; 1 missing file[timecenter.sty].
127879 2013-03-06 22:12:03 /0505/cs.0505023 53620000[\atpn, {keywords}, {theorem}, \drawedge, \bbbq, \uppaal, \ltl, \multirow, \romeo, \tctl, \optikron, \mercutio, \bbbr, \tpn, \mathbb, \tableFootnote, \ptpn, \nodelabel, Align, \colorbox, \implies, \subfigure, \dbm, \tina, \email, \bbbn, \node, \text, \ttp
127880 2013-03-06 22:12:01 /0505/cs.0505020 130000[{keywords}, \authorrefmark, \IEEEoverridecommandlockouts]; 1 missing file[IEEEtran.cls].
127881 2013-03-06 22:11:48 /0505/cs.0505024 1690000[\citeauthoryear, Align, \citeyear, \SIGACTmaketitle, \infer]; 2 missing files[SIGACTNews.sty, chicagor.sty].
127882 2013-03-06 22:11:21 /0505/cond-mat.0505749 1510000[\theappendix].
127883 2013-03-06 22:11:19 /0505/cs.0505001 2320000[{proof}]; 1 missing file[boxedminipage.sty].
127884 2013-03-06 22:11:11 /0505/cs.0505018 3190000[Align, {xy}, \dir, \twocelltail, \xymatrix, \entrymodifiers, \ar, \CompileMatrices]; 1 missing file[xy.sty].
127885 2013-03-06 22:11:07 /0505/cs.0505003 1420000[\authorblockN, \authorblockA]; 1 missing file[IEEEtran.cls].
127886 2013-03-06 22:11:02 /0505/cs.0505005 0140000[\li, \Do, \authorrefmark, \authorblockA, \Else, \Procname, {codebox}, \While, \authorblockN, \Then, \If, \proc]; 2 missing files[umlaut.sty, clrscode.sty].
127887 2013-03-06 22:10:23 /0505/cond-mat.0505751 540000[\kword, \abst, \inst, \citen].
127888 2013-03-06 22:10:08 /0505/cond-mat.0505745 030000[\extrasenglish, \dateenglish, \captionsenglish].
127889 2013-03-06 22:10:03 /0505/cond-mat.0505741 030000[\extrasenglish, \dateenglish, \captionsenglish].
127890 2013-03-06 22:09:44 /0505/cond-mat.0505732 410000[Align].
127891 2013-03-06 22:09:25 /0505/cond-mat.0505719 730000[\kword, \abst, \inst].
127892 2013-03-06 22:09:22 /0505/cond-mat.0505722 660000[\citenum, \authorinfo, \skiplinehalf, \acknowledgments, \keywords, \supit]; 1 missing file[spie.cls].
127893 2013-03-06 22:08:44 /0505/cond-mat.0505678 2710000[\a].
127894 2013-03-06 22:08:38 /0505/cond-mat.0505697 140000[\@affiliation, \onefigure].
127895 2013-03-06 22:08:15 /0505/cond-mat.0505684 030000[\extrasenglish, \dateenglish, \captionsenglish].
127896 2013-03-06 22:07:35 /0505/cond-mat.0505660 030000[\extrasenglish, \dateenglish, \captionsenglish].
127897 2013-03-06 22:07:32 /0505/cond-mat.0505641 8200000[\pacs, \addressiv, \authori, \addressvi, \authoriii, \addressi, \suppl, \headtitle, \refnum, \addressv, \lastevenhead, \authorvi, \addressiii, \headauthor, \authorii, \keywords, \authoriv, \daterec, \authorv, \addressii]; 1 missing file[cjpsuppl.cls].
127898 2013-03-06 22:07:27 /0505/cond-mat.0505649 4150000[{keywords}, \PARstart, \IEEEmembership, \appendices]; 1 missing file[IEEEtran.cls].
127899 2013-03-06 22:07:24 /0505/cond-mat.0505642 8560000[\bea, \pacs, \bc, \addressiv, \authori, \ec, \addressvi, \authoriii, \addressi, \eea, \suppl, \headtitle, \refnum, \addressv, \bbib, \lastevenhead, \authorvi, \addressiii, \efg, \ebib, \headauthor, \authorii, \keywords, \authoriv, \daterec, \authorv, \bf
127900 2013-03-06 22:06:56 /0505/cond-mat.0505614 48670000[\psfrag, \ThreeDput]; 1 missing file[pst-3d.sty].
127901 2013-03-06 22:06:42 /0505/cond-mat.0505621 610000[\a].
127902 2013-03-06 22:06:41 /0505/cond-mat.0505618 230000[\kword, \abst, \inst].
127903 2013-03-06 22:06:19 /0505/cond-mat.0505594 430000[\Qlb, \Qcb, \FRAME].
127904 2013-03-06 22:05:43 /0505/cond-mat.0505546 65160000[\bm, \catchline, \lesssim, \refcite, \keywords, \includegraphics, {history}, \@topnum, \revised, \@starttoc, \received]; 1 missing file[ws.sty].
127905 2013-03-06 22:05:23 /0505/cond-mat.0505589 160000[\catchline, {history}, \psfig, \revised, \keywords, \received].
127906 2013-03-06 22:05:14 /0505/cond-mat.0505572 030000[\extrasenglish, \dateenglish, \captionsenglish].
127907 2013-03-06 22:04:50 /0505/cond-mat.0505580 030000[\extrasenglish, \dateenglish, \captionsenglish].
127908 2013-03-06 22:03:12 /0505/cond-mat.0505535 040000[\theappendix, \extrasenglish, \dateenglish, \captionsenglish].
127909 2013-03-06 22:02:53 /0505/cond-mat.0505521 030000[\extrasenglish, \dateenglish, \captionsenglish].
127910 2013-03-06 22:02:21 /0505/cond-mat.0505498 320000[\eqref]; 1 missing file[amsmath1.sty].
127911 2013-03-06 22:02:08 /0505/cond-mat.0505500 030000[\extrasenglish, \dateenglish, \captionsenglish].
127912 2013-03-06 22:01:59 /0505/cond-mat.0505410 15640000[\anregung, \teilchen, \loch]; 1 missing file[Graphen.sty].
127913 2013-03-06 22:01:46 /0505/cond-mat.0505471 1840000[\kword, \abst, \inst, \recdate].
127914 2013-03-06 22:01:43 /0505/cond-mat.0505467 1230000[\kword, \abst, \inst].
127915 2013-03-06 22:01:43 /0505/cond-mat.0505492 120000[\medcirc, \medbullet].
127916 2013-03-06 22:01:35 /0505/cond-mat.0505479 040000[\kword, \abst, \inst, \citen].
127917 2013-03-06 22:01:34 /0505/cond-mat.0505468 740000[\kword, \abst, \inst, \recdate].
127918 2013-03-06 22:01:27 /0505/cond-mat.0505472 130000[\kword, \abst, \inst].
127919 2013-03-06 22:01:19 /0505/cond-mat.0505454 1910000[\FRAME].
127920 2013-03-06 22:01:03 /0505/cond-mat.0505466 1210000[\unit].
127921 2013-03-06 22:00:35 /0505/cond-mat.0505442 1240000[\kword, \abst, \inst, \recdate].
127922 2013-03-06 22:00:23 /0505/cond-mat.0505428 130000[\addressemail, \arxurl]; 1 missing file[xy.sty].
127923 2013-03-06 21:59:55 /0505/cond-mat.0505425 1310000[\psfrag].
127924 2013-03-06 21:59:52 /0505/cond-mat.0505420 030000[\extrasenglish, \dateenglish, \captionsenglish].
127925 2013-03-06 21:59:24 /0505/cond-mat.0505411 1340000[\kword, \abst, \inst, \recdate].
127926 2013-03-06 21:59:14 /0505/cond-mat.0505426 030000[\extrasenglish, \dateenglish, \captionsenglish].
127927 2013-03-06 21:58:35 /0505/cond-mat.0505396 130000[\extrasenglish, \dateenglish, \captionsenglish].
127928 2013-03-06 21:58:23 /0505/cond-mat.0505388 120000[{theacknowledgments}, \layoutstyle].
127929 2013-03-06 21:57:14 /0505/cond-mat.0505379 540000[\epsfbox, \epsfxsize]; 2 missing files[subeqna.sty, jpsjbs.sty].
127930 2013-03-06 21:56:37 /0505/cond-mat.0505361 110000[\theappendix].
127931 2013-03-06 21:54:47 /0505/cond-mat.0505214 40450000[{SCfigure}]; 1 missing file[sidecap.sty].
127932 2013-03-06 21:53:59 /0505/cond-mat.0505238 13810000[\fancyplain].
127933 2013-03-06 21:53:45 /0505/cond-mat.0505310 030000[\extrasenglish, \dateenglish, \captionsenglish].
127934 2013-03-06 21:52:53 /0505/cond-mat.0505270 190000[\mailingtwo, \dates, \mailingone, \volnumpagesyear, \authorsone, \keywords, \affiliationone, \authorstwo, \affiliationtwo]; 1 missing file[newFNLstyle.cls].
127935 2013-03-06 21:52:25 /0505/cond-mat.0505274 020000[\@affiliation].
127936 2013-03-06 21:51:54 /0505/cond-mat.0505267 2340000[\kword, \abst, \inst, \mib].
127937 2013-03-06 21:51:19 /0505/cond-mat.0505241 1310000[\citen].
127938 2013-03-06 21:51:18 /0505/cond-mat.0505254 2630000[\kword, \abst, \inst].
127939 2013-03-06 21:51:11 /0505/cond-mat.0505235 030000[\extrasenglish, \dateenglish, \captionsenglish].
127940 2013-03-06 21:51:05 /0505/cond-mat.0505236 310000[\tsum].
127941 2013-03-06 21:50:24 /0505/cond-mat.0505228 950000[\catchline, {history}, \psfig, \received]; 1 missing file[ws.sty].
127942 2013-03-06 21:49:50 /0505/cond-mat.0505220 1540000[\cmidrule, \midrule, \toprule, \bottomrule].
127943 2013-03-06 21:49:46 /0505/cond-mat.0505216 460000[\@affiliation].
127944 2013-03-06 21:49:05 /0505/cond-mat.0505202 3410000[\theparentequation].
127945 2013-03-06 21:49:03 /0505/cond-mat.0505205 130000[\@affiliation].
127946 2013-03-06 21:48:55 /0505/cond-mat.0505185 2060000[{sidewaystable}, {sidewaysfigure}].
127947 2013-03-06 21:46:33 /0505/cond-mat.0505158 3210000[\theappendix].
127948 2013-03-06 21:46:13 /0505/cond-mat.0505150 210000[\a].
127949 2013-03-06 21:44:39 /0505/cond-mat.0505109 1410000[\rotdriver].
127950 2013-03-06 21:44:32 /0505/cond-mat.0505122 240000[\kword, \abst, \inst, \recdate].
127951 2013-03-06 21:44:15 /0505/cond-mat.0505125 160000[\pacs, \inst, \shorttitle, \Name, \twoimages, \acknowledgments].
127952 2013-03-06 21:43:44 /0505/cond-mat.0505096 840000[\kword, \inst, \recdate, \mib].
127953 2013-03-06 21:42:17 /0505/cond-mat.0505045 2410000[\affiliation].
127954 2013-03-06 21:42:04 /0505/cond-mat.0505053 5110000[\address].
127955 2013-03-06 21:41:00 /0505/astro-ph.0505536 020000[\al@Kellermann_etal98,Zensus_etal02]; 1 missing file[apjfonts.sty].
127956 2013-03-06 21:40:57 /0505/astro-ph.0505448 1310000[\theappendix].
127957 2013-03-06 21:40:56 /0505/cond-mat.0505029 050000[\theappendix, \ocis, \address, \email, {abstract*}].
127958 2013-03-06 21:40:28 /0505/cond-mat.0505017 170000[\twofigures, \@affiliation, \onefigure, \etal].
127959 2013-03-06 21:39:11 /0505/astro-ph.0505603 730000[{sidewaystable}]; 1 missing file[count1to.sty].
127960 2013-03-06 21:38:27 /0505/astro-ph.0505607 450000[\@affiliation].
127961 2013-03-06 21:38:09 /0505/astro-ph.0505587 1630000[\rmxaa].
127962 2013-03-06 21:37:57 /0505/astro-ph.0505602 1430000[\psfrag, \extralineskip, \newlength].
127963 2013-03-06 21:37:47 /0505/astro-ph.0505583 250000[\epsfbox, \abstracts, \epsfxsize]; 1 missing file[ws.sty].
127964 2013-03-06 21:37:36 /0505/astro-ph.0505591 120000[\citeauthoryear, Align].
127965 2013-03-06 21:37:21 /0505/astro-ph.0505592 1140000[\draft, \apj, \aj, \aap, \altaffilmark, \Received, \apjs, \mnras, \FigureFile, \Accepted, \email, \altaffiltext, \SetRunningHead, \KeyWords]; 1 missing file[pasj00.cls].
127966 2013-03-06 21:37:19 /0505/astro-ph.0505573 020000[\layoutstyle, \classification].
127967 2013-03-06 21:37:19 /0505/astro-ph.0505574 020000[\layoutstyle, \classification].
127968 2013-03-06 21:37:10 /0505/astro-ph.0505576 2240000[\endpage, \runningtitle, \keywords, \address, \epsfbox, \reference, \beginpage, \runningauthor, {references}, \acknowledgements, \epsfxsize]; 1 missing file[jkas2.sty].
127969 2013-03-06 21:37:09 /0505/astro-ph.0505577 120000[\citeauthoryear, \institute]; 1 missing file[krakproc.cls].
127970 2013-03-06 21:37:03 /0505/astro-ph.0505561 28110000[{turn}].
127971 2013-03-06 21:37:02 /0505/astro-ph.0505578 7120000[\timeform, \emissiontype, \micron, \altaffilmark, \Received, \FigureFile, \Accepted, \email, \citet, \altaffiltext, \SetRunningHead, \KeyWords]; 1 missing file[pasj00.cls].
127972 2013-03-06 21:37:01 /0505/astro-ph.0505579 390000[\affil, \draft, \apj, \Received, \Accepted, \email, \FigureFile, \SetRunningHead, \KeyWords]; 1 missing file[pasj00.cls].
127973 2013-03-06 21:36:54 /0505/astro-ph.0505562 090000[\arcmin, \affil, \apj, \plotone, \arcsec, \ga, \plotfiddle, \la]; 1 missing file[asp2004.sty].
127974 2013-03-06 21:36:39 /0505/astro-ph.0505572 2340000[{theacknowledgments}, \layoutstyle, \tablehead, \classification].
127975 2013-03-06 21:36:30 /0505/astro-ph.0505555 720000[{sidewaystable}].
127976 2013-03-06 21:36:18 /0505/astro-ph.0505543 710000[\theappendix].
127977 2013-03-06 21:35:54 /0505/astro-ph.0505542 010000[\theappendix].
127978 2013-03-06 21:35:51 /0505/astro-ph.0505557 410000[Align].
127979 2013-03-06 21:35:38 /0505/astro-ph.0505533 010000[\theappendix].
127980 2013-03-06 21:35:21 /0505/astro-ph.0505529 510000[\theappendix].
127981 2013-03-06 21:35:00 /0505/astro-ph.0505522 2120000[\Abstract, \refitem, {Titlepage}, \Author, {sidewaystable}, \SetVol, \SetPages, {references}, \Title, \Acknow, \etal]; 1 missing file[acta.cls].
127982 2013-03-06 21:35:00 /0505/astro-ph.0505535 14120000[\PACSes, \BY, \atque, \acknowledgments, \PACSit, \from, \ETC, \NAME, \TITLE, \IN, \shorttitle, \instlist].
127983 2013-03-06 21:34:58 /0505/astro-ph.0505539 0190000[\extrasenglish, \SetYear, \shorttitle, \email, \SetConfTitle, \arcdeg, \arcsec, \etal, \indexauthor, \shortauthor, \altaffilmark, \dateenglish, \listofauthors, \addkeyword, \altaffiltext, \acknowledgements, \fulladdresses, \captionsenglish].
127984 2013-03-06 21:34:13 /0505/astro-ph.0505530 060000[\affil, \plotone, \citep, \citet, \plottwo]; 1 missing file[asp2004.sty].
127985 2013-03-06 21:34:00 /0505/astro-ph.0505514 390000[{acknowledgments}, \firstsection, \editors, \affiliation, \jname, \pagerange, \keywords, \volume, \pubyear]; 1 missing file[iauc.cls].
127986 2013-03-06 21:33:34 /0505/astro-ph.0505495 020000[\mathhexbox]; 1 missing file[bib_macro.sty].
127987 2013-03-06 21:33:08 /0505/astro-ph.0505492 020000[\affil]; 1 missing file[asp2004.sty].
127988 2013-03-06 21:32:55 /0505/astro-ph.0505500 250000[{acknowledgments}, \affil, {keywords}, \articletitle, \email].
127989 2013-03-06 21:32:29 /0505/astro-ph.0505479 13120000[{acknowledgments}, \lesssim, \editors, \affiliation, \keywords, \volume, \firstsection, \gtrsim, {discussion}, \pagerange, \jname, \pubyear]; 1 missing file[iauc.cls].
127990 2013-03-06 21:32:18 /0505/astro-ph.0505477 010000[\theappendix].
127991 2013-03-06 21:32:12 /0505/astro-ph.0505471 080000[\affil, \plotone, \citep, \citet, \aap]; 1 missing file[asp2004.sty].
127992 2013-03-06 21:32:09 /0505/astro-ph.0505475 10200000[\InstitutionFax, \ContactAuthorReference, \AuthorName, \STitle, \NumberofAuthors, \IvsComponentName, \AuthorEmail, \PaperSize, \AuthorInstitutionReference, \PublicationName, \AuthorPersonalWebPage, \InstitutionCountry, \AuthorTelephone, \InstitutionName,
127993 2013-03-06 21:32:01 /0505/astro-ph.0505455 7510000[\theappendix].
127994 2013-03-06 21:31:44 /0505/astro-ph.0505444 2420000[{sidewaysfigure*}].
127995 2013-03-06 21:31:29 /0505/astro-ph.0505457 2330000[\theappendix, \institute, \acknowledgements].
127996 2013-03-06 21:31:13 /0505/astro-ph.0505443 410000[\theappendix].
127997 2013-03-06 21:31:12 /0505/astro-ph.0505445 8650000[\psfig]; 1 missing file[psfig].
127998 2013-03-06 21:31:01 /0505/astro-ph.0505431 010000[Align].
127999 2013-03-06 21:30:31 /0505/astro-ph.0505437 420000[\PACS]; 1 missing file[size11.clo.sty].
128000 2013-03-06 21:30:29 /0505/astro-ph.0505413 2220000[\output@glob@notes, \t@glob@notes].
<<< >>>

[0] [200] [400] [600] [800] [1000] [1200] [1400] [1600] [1800] [2000] [2200] [2400] [2600] [2800] [3000] [3200] [3400] [3600] [3800] [4000] [4200] [4400] [4600] [4800] [5000] [5200] [5400] [5600] [5800] [6000] [6200] [6400] [6600] [6800] [7000] [7200] [7400] [7600] [7800] [8000] [8200] [8400] [8600] [8800] [9000] [9200] [9400] [9600] [9800] [10000] [10200] [10400] [10600] [10800] [11000] [11200] [11400] [11600] [11800] [12000] [12200] [12400] [12600] [12800] [13000] [13200] [13400] [13600] [13800] [14000] [14200] [14400] [14600] [14800] [15000] [15200] [15400] [15600] [15800] [16000] [16200] [16400] [16600] [16800] [17000] [17200] [17400] [17600] [17800] [18000] [18200] [18400] [18600] [18800] [19000] [19200] [19400] [19600] [19800] [20000] [20200] [20400] [20600] [20800] [21000] [21200] [21400] [21600] [21800] [22000] [22200] [22400] [22600] [22800] [23000] [23200] [23400] [23600] [23800] [24000] [24200] [24400] [24600] [24800] [25000] [25200] [25400] [25600] [25800] [26000] [26200] [26400] [26600] [26800] [27000] [27200] [27400] [27600] [27800] [28000] [28200] [28400] [28600] [28800] [29000] [29200] [29400] [29600] [29800] [30000] [30200] [30400] [30600] [30800] [31000] [31200] [31400] [31600] [31800] [32000] [32200] [32400] [32600] [32800] [33000] [33200] [33400] [33600] [33800] [34000] [34200] [34400] [34600] [34800] [35000] [35200] [35400] [35600] [35800] [36000] [36200] [36400] [36600] [36800] [37000] [37200] [37400] [37600] [37800] [38000] [38200] [38400] [38600] [38800] [39000] [39200] [39400] [39600] [39800] [40000] [40200] [40400] [40600] [40800] [41000] [41200] [41400] [41600] [41800] [42000] [42200] [42400] [42600] [42800] [43000] [43200] [43400] [43600] [43800] [44000] [44200] [44400] [44600] [44800] [45000] [45200] [45400] [45600] [45800] [46000] [46200] [46400] [46600] [46800] [47000] [47200] [47400] [47600] [47800] [48000] [48200] [48400] [48600] [48800] [49000] [49200] [49400] [49600] [49800] [50000] [50200] [50400] [50600] [50800] [51000] [51200] [51400] [51600] [51800] [52000] [52200] [52400] [52600] [52800] [53000] [53200] [53400] [53600] [53800] [54000] [54200] [54400] [54600] [54800] [55000] [55200] [55400] [55600] [55800] [56000] [56200] [56400] [56600] [56800] [57000] [57200] [57400] [57600] [57800] [58000] [58200] [58400] [58600] [58800] [59000] [59200] [59400] [59600] [59800] [60000] [60200] [60400] [60600] [60800] [61000] [61200] [61400] [61600] [61800] [62000] [62200] [62400] [62600] [62800] [63000] [63200] [63400] [63600] [63800] [64000] [64200] [64400] [64600] [64800] [65000] [65200] [65400] [65600] [65800] [66000] [66200] [66400] [66600] [66800] [67000] [67200] [67400] [67600] [67800] [68000] [68200] [68400] [68600] [68800] [69000] [69200] [69400] [69600] [69800] [70000] [70200] [70400] [70600] [70800] [71000] [71200] [71400] [71600] [71800] [72000] [72200] [72400] [72600] [72800] [73000] [73200] [73400] [73600] [73800] [74000] [74200] [74400] [74600] [74800] [75000] [75200] [75400] [75600] [75800] [76000] [76200] [76400] [76600] [76800] [77000] [77200] [77400] [77600] [77800] [78000] [78200] [78400] [78600] [78800] [79000] [79200] [79400] [79600] [79800] [80000] [80200] [80400] [80600] [80800] [81000] [81200] [81400] [81600] [81800] [82000] [82200] [82400] [82600] [82800] [83000] [83200] [83400] [83600] [83800] [84000] [84200] [84400] [84600] [84800] [85000] [85200] [85400] [85600] [85800] [86000] [86200] [86400] [86600] [86800] [87000] [87200] [87400] [87600] [87800] [88000] [88200] [88400] [88600] [88800] [89000] [89200] [89400] [89600] [89800] [90000] [90200] [90400] [90600] [90800] [91000] [91200] [91400] [91600] [91800] [92000] [92200] [92400] [92600] [92800] [93000] [93200] [93400] [93600] [93800] [94000] [94200] [94400] [94600] [94800] [95000] [95200] [95400] [95600] [95800] [96000] [96200] [96400] [96600] [96800] [97000] [97200] [97400] [97600] [97800] [98000] [98200] [98400] [98600] [98800] [99000] [99200] [99400] [99600] [99800] [100000] [100200] [100400] [100600] [100800] [101000] [101200] [101400] [101600] [101800] [102000] [102200] [102400] [102600] [102800] [103000] [103200] [103400] [103600] [103800] [104000] [104200] [104400] [104600] [104800] [105000] [105200] [105400] [105600] [105800] [106000] [106200] [106400] [106600] [106800] [107000] [107200] [107400] [107600] [107800] [108000] [108200] [108400] [108600] [108800] [109000] [109200] [109400] [109600] [109800] [110000] [110200] [110400] [110600] [110800] [111000] [111200] [111400] [111600] [111800] [112000] [112200] [112400] [112600] [112800] [113000] [113200] [113400] [113600] [113800] [114000] [114200] [114400] [114600] [114800] [115000] [115200] [115400] [115600] [115800] [116000] [116200] [116400] [116600] [116800] [117000] [117200] [117400] [117600] [117800] [118000] [118200] [118400] [118600] [118800] [119000] [119200] [119400] [119600] [119800] [120000] [120200] [120400] [120600] [120800] [121000] [121200] [121400] [121600] [121800] [122000] [122200] [122400] [122600] [122800] [123000] [123200] [123400] [123600] [123800] [124000] [124200] [124400] [124600] [124800] [125000] [125200] [125400] [125600] [125800] [126000] [126200] [126400] [126600] [126800] [127000] [127200] [127400] [127600] [127800] [128000] [128200] [128400] [128600] [128800] [129000] [129200] [129400] [129600] [129800] [130000] [130200] [130400] [130600] [130800] [131000] [131200] [131400] [131600] [131800] [132000] [132200] [132400] [132600] [132800] [133000] [133200] [133400] [133600] [133800] [134000] [134200] [134400] [134600] [134800] [135000] [135200] [135400] [135600] [135800] [136000] [136200] [136400] [136600] [136800] [137000] [137200] [137400] [137600] [137800] [138000] [138200] [138400] [138600] [138800] [139000] [139200] [139400] [139600] [139800] [140000] [140200] [140400] [140600] [140800] [141000] [141200] [141400] [141600] [141800] [142000] [142200] [142400] [142600] [142800] [143000] [143200] [143400] [143600] [143800] [144000] [144200] [144400] [144600] [144800] [145000] [145200] [145400] [145600] [145800] [146000] [146200] [146400] [146600] [146800] [147000] [147200] [147400] [147600] [147800] [148000] [148200] [148400] [148600] [148800] [149000] [149200] [149400] [149600] [149800] [150000] [150200] [150400] [150600] [150800] [151000] [151200] [151400] [151600] [151800] [152000] [152200] [152400] [152600] [152800] [153000] [153200] [153400] [153600] [153800] [154000] [154200] [154400] [154600] [154800] [155000] [155200] [155400] [155600] [155800] [156000] [156200] [156400] [156600] [156800] [157000] [157200] [157400] [157600] [157800] [158000] [158200] [158400] [158600] [158800] [159000] [159200] [159400] [159600] [159800] [160000] [160200] [160400] [160600] [160800] [161000] [161200] [161400] [161600] [161800] [162000] [162200] [162400] [162600] [162800] [163000] [163200] [163400] [163600] [163800] [164000] [164200] [164400] [164600]
 
  The service has been written by
Heinrich Stamerjohanns